Brookville, Ohio
Current Conditions -  °F | °C
As of 1:56 AM on Sunday 23 Nov 2014 (Local Time) from KDAY Reporting Station
Overcast Overcast  
Wind Chill: 51°   Ceiling: 6500
Heat Index: 51°   Visibility: 10mi
Dew Point: 34°   Wind: 9mph
Humidity: 52%   Direction: 200°SSW
Pressure: 30.04"   Gusts: NA
Location:  39.84°N, 84.41°W
Report Text: KDAY 230656Z 20008KT 10SM OVC065 11/01 A3004 RMK AO2 RAB40E51 SLP172 P0000 T01060011
Loading
Personal Weather Stations






























Interactive Weather Map New forecast layout! Learn more

10-Day Weather Forecast

Advertisements
Track Severe Weather on mobile